createdAt,value
2017-11-26T00:00:19.007Z,100255.92
2017-11-26T00:02:46.681Z,100251.30
2017-11-26T00:05:14.299Z,100253.22
2017-11-26T00:07:42.026Z,100253.58
2017-11-26T00:10:09.689Z,100257.94
2017-11-26T00:12:37.409Z,100254.88
2017-11-26T00:15:05.201Z,100253.29
2017-11-26T00:17:32.868Z,100250.46
2017-11-26T00:20:00.604Z,100250.46
2017-11-26T00:22:28.332Z,100252.51
2017-11-26T00:24:56.033Z,100252.02
2017-11-26T00:27:23.664Z,100252.31
2017-11-26T00:29:51.381Z,100254.16
2017-11-26T00:32:19.122Z,100252.70
2017-11-26T00:34:46.776Z,100253.52
2017-11-26T00:37:14.504Z,100259.34
2017-11-26T00:39:42.116Z,100256.34
2017-11-26T00:42:09.789Z,100246.49
2017-11-26T00:44:37.455Z,100258.78
2017-11-26T00:47:05.130Z,100246.23
2017-11-26T00:49:32.748Z,100252.20
2017-11-26T00:52:00.407Z,100255.72
2017-11-26T00:54:28.019Z,100256.02
2017-11-26T00:56:55.632Z,100255.08
2017-11-26T00:59:23.300Z,100253.67
2017-11-26T01:01:50.924Z,100250.03
2017-11-26T01:04:18.540Z,100246.16
2017-11-26T01:06:46.260Z,100244.22
2017-11-26T01:09:13.872Z,100244.89
2017-11-26T01:11:41.543Z,100237.22
2017-11-26T01:14:09.280Z,100230.85
2017-11-26T01:16:36.900Z,100224.87
2017-11-26T01:19:04.513Z,100221.91
2017-11-26T01:21:32.179Z,100217.69
2017-11-26T01:23:59.789Z,100218.66
2017-11-26T01:26:27.400Z,100214.11
2017-11-26T01:28:55.065Z,100213.30
2017-11-26T01:31:22.740Z,100216.03
2017-11-26T01:33:50.357Z,100215.58
2017-11-26T01:36:18.105Z,100214.11
2017-11-26T01:38:45.761Z,100216.68
2017-11-26T01:41:13.387Z,100212.06
2017-11-26T01:43:41.066Z,100210.05
2017-11-26T01:46:08.676Z,100211.31
2017-11-26T01:48:36.360Z,100201.85
2017-11-26T01:51:04.020Z,100211.95
2017-11-26T01:53:31.629Z,100202.08
2017-11-26T01:55:59.352Z,100198.62
2017-11-26T01:58:27.021Z,100203.70
2017-11-26T02:00:54.649Z,100201.78
2017-11-26T02:03:22.337Z,100206.60
2017-11-26T02:05:50.064Z,100192.95
2017-11-26T02:08:17.737Z,100196.10
2017-11-26T02:10:45.355Z,100191.73
2017-11-26T02:13:13.049Z,100202.05
2017-11-26T02:15:40.737Z,100207.45
2017-11-26T02:18:08.413Z,100200.27
2017-11-26T02:20:36.145Z,100194.45
2017-11-26T02:23:03.864Z,100193.73
2017-11-26T02:25:31.483Z,100194.97
2017-11-26T02:27:59.148Z,100190.28
2017-11-26T02:30:26.784Z,100189.51
2017-11-26T02:33:06.406Z,100187.39
2017-11-26T02:38:34.085Z,100188.56
2017-11-26T02:41:01.724Z,100185.89
2017-11-26T02:43:29.344Z,100191.52
2017-11-26T02:45:57.047Z,100201.40
2017-11-26T02:48:24.685Z,100197.34
2017-11-26T02:50:52.301Z,100199.58
2017-11-26T02:53:19.984Z,100199.39
2017-11-26T02:55:47.660Z,100195.69
2017-11-26T02:58:15.338Z,100187.06
2017-11-26T03:00:43.057Z,100183.30
2017-11-26T03:03:10.670Z,100183.84
2017-11-26T03:05:38.280Z,100184.69
2017-11-26T03:08:05.951Z,100188.63
2017-11-26T03:10:33.592Z,100187.55
2017-11-26T03:13:01.270Z,100197.50
2017-11-26T03:15:28.937Z,100195.03
2017-11-26T03:17:56.608Z,100192.47
2017-11-26T03:20:24.232Z,100185.51
2017-11-26T03:22:51.901Z,100189.51
2017-11-26T03:25:19.517Z,100189.70
2017-11-26T03:27:47.175Z,100182.45
2017-11-26T03:30:14.893Z,100183.49
2017-11-26T03:32:42.572Z,100186.28
2017-11-26T03:35:10.248Z,100177.45
2017-11-26T03:37:37.925Z,100177.31
2017-11-26T03:40:05.584Z,100182.22
2017-11-26T03:42:33.317Z,100182.22
2017-11-26T03:45:01.032Z,100178.55
2017-11-26T03:47:28.650Z,100171.83
2017-11-26T03:49:56.263Z,100167.30
2017-11-26T03:52:23.978Z,100170.93
2017-11-26T03:54:51.585Z,100164.27
2017-11-26T03:57:19.200Z,100168.91
2017-11-26T03:59:46.912Z,100165.49
2017-11-26T04:02:14.526Z,100167.31
2017-11-26T04:04:42.128Z,100167.25
2017-11-26T04:07:09.788Z,100161.70
2017-11-26T04:09:37.404Z,100158.73
2017-11-26T04:12:05.068Z,100153.30
2017-11-26T04:14:32.741Z,100152.45
2017-11-26T04:17:00.393Z,100160.48
2017-11-26T04:19:28.073Z,100155.48
2017-11-26T04:21:55.741Z,100153.67
2017-11-26T04:24:23.349Z,100145.44
2017-11-26T04:26:50.996Z,100144.67
2017-11-26T04:29:18.721Z,100148.29
2017-11-26T04:31:46.336Z,100145.52
2017-11-26T04:34:13.945Z,100142.59
2017-11-26T04:36:41.609Z,100143.81
2017-11-26T04:39:09.221Z,100149.32
2017-11-26T04:41:36.830Z,100148.05
2017-11-26T04:44:04.492Z,100147.62
2017-11-26T04:46:32.157Z,100146.36
2017-11-26T04:48:59.784Z,100146.03
2017-11-26T04:51:27.442Z,100143.02
2017-11-26T04:53:55.181Z,100141.63
2017-11-26T04:56:22.849Z,100145.14
2017-11-26T04:58:50.605Z,100145.55
2017-11-26T05:01:18.403Z,100145.17
2017-11-26T05:03:46.089Z,100147.22
2017-11-26T05:06:13.769Z,100147.48
2017-11-26T05:08:41.389Z,100144.48
2017-11-26T05:11:09.015Z,100146.05
2017-11-26T05:13:36.745Z,100139.63
2017-11-26T05:16:04.421Z,100134.55
2017-11-26T05:18:32.089Z,100133.47
2017-11-26T05:20:59.778Z,100134.86
2017-11-26T05:23:27.392Z,100136.20
2017-11-26T05:25:55.007Z,100136.86
2017-11-26T05:28:22.730Z,100141.20
2017-11-26T05:30:50.352Z,100140.62
2017-11-26T05:33:18.051Z,100140.41
2017-11-26T05:35:45.716Z,100140.41
2017-11-26T05:38:13.342Z,100145.56
2017-11-26T05:40:40.949Z,100143.03
2017-11-26T05:43:08.659Z,100143.88
2017-11-26T05:45:36.396Z,100143.75
2017-11-26T05:48:04.105Z,100140.66
2017-11-26T05:50:31.833Z,100142.47
2017-11-26T05:52:59.497Z,100140.59
2017-11-26T05:55:27.119Z,100141.27
2017-11-26T05:57:54.837Z,100147.56
2017-11-26T06:00:22.476Z,100144.47
2017-11-26T06:02:50.162Z,100144.89
2017-11-26T06:05:17.825Z,100141.87
2017-11-26T06:07:45.445Z,100143.69
2017-11-26T06:10:13.065Z,100136.48
2017-11-26T06:12:40.723Z,100140.11
2017-11-26T06:15:08.344Z,100140.94
2017-11-26T06:17:36.013Z,100136.77
2017-11-26T06:20:03.720Z,100136.66
2017-11-26T06:22:31.379Z,100126.92
2017-11-26T06:24:59.043Z,100137.16
2017-11-26T06:27:26.764Z,100134.78
2017-11-26T06:29:54.449Z,100130.69
2017-11-26T06:32:22.120Z,100133.33
2017-11-26T06:34:49.862Z,100133.64
2017-11-26T06:37:17.529Z,100133.51
2017-11-26T06:39:45.299Z,100127.45
2017-11-26T06:42:13.021Z,100131.98
2017-11-26T06:44:40.747Z,100131.20
2017-11-26T06:47:08.432Z,100129.54
2017-11-26T06:49:36.113Z,100137.77
2017-11-26T06:52:03.724Z,100142.09
2017-11-26T06:54:31.350Z,100136.22
2017-11-26T06:56:59.067Z,100131.80
2017-11-26T06:59:26.745Z,100129.42
2017-11-26T07:01:54.457Z,100133.84
2017-11-26T07:04:22.135Z,100123.02
2017-11-26T07:06:49.856Z,100121.07
2017-11-26T07:09:17.468Z,100112.14
2017-11-26T07:11:45.134Z,100119.19
2017-11-26T07:14:13.017Z,100115.75
2017-11-26T07:16:40.643Z,100112.76
2017-11-26T07:19:08.331Z,100111.36
2017-11-26T07:21:36.009Z,100120.06
2017-11-26T07:24:03.690Z,100110.12
2017-11-26T07:26:31.416Z,100110.45
2017-11-26T07:28:59.087Z,100101.31
2017-11-26T07:31:26.773Z,100092.92
2017-11-26T07:33:54.506Z,100090.94
2017-11-26T07:36:22.120Z,100092.38
2017-11-26T07:38:49.786Z,100087.86
2017-11-26T07:41:17.501Z,100084.34
2017-11-26T07:43:45.168Z,100088.47
2017-11-26T07:46:12.795Z,100085.39
2017-11-26T07:48:40.456Z,100090.87
2017-11-26T07:51:08.064Z,100088.81
2017-11-26T07:53:35.674Z,100084.90
2017-11-26T07:56:03.369Z,100083.28
2017-11-26T07:58:31.041Z,100080.56
2017-11-26T08:00:58.710Z,100075.99
2017-11-26T08:03:26.444Z,100076.41
2017-11-26T08:05:54.114Z,100071.06
2017-11-26T08:08:21.728Z,100064.03
2017-11-26T08:10:49.384Z,100069.31
2017-11-26T08:13:16.984Z,100066.70
2017-11-26T08:15:44.601Z,100076.98
2017-11-26T08:18:12.248Z,100074.06
2017-11-26T08:20:39.925Z,100074.87
2017-11-26T08:23:07.532Z,100075.90
2017-11-26T08:25:35.321Z,100075.79
2017-11-26T08:28:02.945Z,100071.33
2017-11-26T08:30:30.552Z,100071.88
2017-11-26T08:32:58.210Z,100069.86
2017-11-26T08:35:25.820Z,100071.83
2017-11-26T08:37:53.498Z,100060.75
2017-11-26T08:40:21.220Z,100062.44
2017-11-26T08:42:48.954Z,100058.72
2017-11-26T08:45:16.609Z,100056.61
2017-11-26T08:47:44.355Z,100063.64
2017-11-26T08:50:12.013Z,100052.44
2017-11-26T08:52:39.677Z,100049.49
2017-11-26T08:55:07.465Z,100042.27
2017-11-26T08:57:35.131Z,100044.21
2017-11-26T09:00:02.801Z,100051.39
2017-11-26T09:02:30.513Z,100052.39
2017-11-26T09:04:58.244Z,100049.83
2017-11-26T09:07:25.932Z,100048.17
2017-11-26T09:09:53.697Z,100052.12
2017-11-26T09:12:21.396Z,100053.84
2017-11-26T09:14:49.076Z,100060.47
2017-11-26T09:17:16.816Z,100055.38
2017-11-26T09:19:44.513Z,100055.83
2017-11-26T09:22:12.196Z,100047.23
2017-11-26T09:24:39.981Z,100052.40
2017-11-26T09:27:07.589Z,100054.24
2017-11-26T09:29:35.242Z,100054.27
2017-11-26T09:32:02.917Z,100051.75
2017-11-26T09:34:30.547Z,100047.88
2017-11-26T09:36:58.221Z,100038.03
2017-11-26T09:39:25.945Z,100042.68
2017-11-26T09:41:53.563Z,100041.86
2017-11-26T09:44:21.204Z,100039.87
2017-11-26T09:46:48.990Z,100037.95
2017-11-26T09:49:16.629Z,100037.01
2017-11-26T09:51:44.308Z,100035.83
2017-11-26T09:54:12.074Z,100031.29
2017-11-26T09:56:39.705Z,100035.70
2017-11-26T09:59:07.324Z,100032.49
2017-11-26T10:01:35.053Z,100029.36
2017-11-26T10:04:02.682Z,100023.97
2017-11-26T10:06:30.316Z,100024.42
2017-11-26T10:08:58.032Z,100014.22
2017-11-26T10:11:25.682Z,100019.81
2017-11-26T10:13:53.361Z,100016.18
2017-11-26T10:16:21.160Z,100011.79
2017-11-26T10:18:48.837Z,100017.59
2017-11-26T10:21:16.465Z,100018.53
2017-11-26T10:23:44.128Z,100010.34
2017-11-26T10:26:11.798Z,100017.08
2017-11-26T10:28:39.414Z,100019.31
2017-11-26T10:31:07.141Z,100022.77
2017-11-26T10:33:34.887Z,100010.08
2017-11-26T10:36:02.521Z,100007.07
2017-11-26T10:38:30.285Z,100006.63
2017-11-26T10:40:57.973Z,100007.44
2017-11-26T10:43:25.679Z,99995.01
2017-11-26T10:45:53.444Z,99996.14
2017-11-26T10:48:21.126Z,99994.61
2017-11-26T10:50:48.839Z,99986.13
2017-11-26T10:53:16.540Z,99989.78
2017-11-26T10:55:44.259Z,99987.67
2017-11-26T10:58:11.999Z,99982.30
2017-11-26T11:00:39.769Z,99980.53
2017-11-26T11:03:07.401Z,99980.48
2017-11-26T11:05:35.101Z,99972.92
2017-11-26T11:08:02.776Z,99971.98
2017-11-26T11:10:30.418Z,99961.94
2017-11-26T11:12:58.048Z,99963.29
2017-11-26T11:15:25.772Z,99960.02
2017-11-26T11:17:53.401Z,99954.06
2017-11-26T11:20:21.041Z,99950.09
2017-11-26T11:22:48.704Z,99955.41
2017-11-26T11:25:16.356Z,99952.63
2017-11-26T11:27:43.973Z,99948.78
2017-11-26T11:30:11.643Z,99944.50
2017-11-26T11:32:39.249Z,99943.58
2017-11-26T11:35:06.875Z,99940.72
2017-11-26T11:37:34.564Z,99928.22
2017-11-26T11:40:02.183Z,99927.27
2017-11-26T11:42:29.849Z,99928.50
2017-11-26T11:44:57.568Z,99924.85
2017-11-26T11:47:25.194Z,99920.23
2017-11-26T11:49:52.954Z,99918.48
2017-11-26T11:52:20.721Z,99914.14
2017-11-26T11:54:48.460Z,99907.28
2017-11-26T11:57:16.092Z,99907.09
2017-11-26T11:59:43.769Z,99909.77
2017-11-26T12:02:11.452Z,99912.05
2017-11-26T12:04:39.087Z,99914.82
2017-11-26T12:07:06.761Z,99918.10
2017-11-26T12:09:34.457Z,99915.67
2017-11-26T12:12:02.089Z,99911.11
2017-11-26T12:14:29.768Z,99910.57
2017-11-26T12:16:57.397Z,99909.99
2017-11-26T12:19:25.080Z,99916.02
2017-11-26T12:21:52.817Z,99909.50
2017-11-26T12:24:20.556Z,99907.13
2017-11-26T12:26:48.240Z,99908.19
2017-11-26T12:29:16.050Z,99906.26
2017-11-26T12:31:43.789Z,99914.72
2017-11-26T12:34:11.473Z,99915.02
2017-11-26T12:36:39.225Z,99928.06
2017-11-26T12:39:06.912Z,99929.62
2017-11-26T12:41:34.552Z,99924.70
2017-11-26T12:44:02.265Z,99926.80
2017-11-26T12:46:29.903Z,99910.78
2017-11-26T12:48:57.540Z,99906.58
2017-11-26T12:51:25.321Z,99904.31
2017-11-26T12:53:52.984Z,99913.60
2017-11-26T12:56:20.595Z,99912.77
2017-11-26T12:58:48.291Z,99904.34
2017-11-26T13:01:15.936Z,99905.39
2017-11-26T13:03:43.622Z,99903.09
2017-11-26T13:06:11.301Z,99904.13
2017-11-26T13:08:39.104Z,99905.12
2017-11-26T13:11:06.752Z,99909.05
2017-11-26T13:13:34.541Z,99908.09
2017-11-26T13:16:02.225Z,99915.97
2017-11-26T13:18:29.853Z,99909.77
2017-11-26T13:20:57.524Z,99920.30
2017-11-26T13:23:25.176Z,99910.35
2017-11-26T13:25:52.881Z,99926.84
2017-11-26T13:28:20.633Z,99926.27
2017-11-26T13:30:48.427Z,99933.77
2017-11-26T13:33:16.217Z,99936.59
2017-11-26T13:35:43.939Z,99929.31
2017-11-26T13:38:11.620Z,99926.03
2017-11-26T13:40:39.279Z,99927.20
2017-11-26T13:43:07.145Z,99926.38
2017-11-26T13:45:34.945Z,99931.35
2017-11-26T13:48:02.603Z,99922.52
2017-11-26T13:50:30.374Z,99922.25
2017-11-26T13:52:58.141Z,99923.22
2017-11-26T13:55:25.790Z,99921.55
2017-11-26T13:57:53.471Z,99914.22
2017-11-26T14:00:21.191Z,99918.18
2017-11-26T14:02:48.993Z,99918.37
2017-11-26T14:05:16.860Z,99924.05
2017-11-26T14:07:44.667Z,99919.72
2017-11-26T14:10:12.296Z,99923.73
2017-11-26T14:12:40.076Z,99925.42
2017-11-26T14:15:07.895Z,99921.83
2017-11-26T14:17:35.658Z,99920.20
2017-11-26T14:20:03.384Z,99913.44
2017-11-26T14:22:31.023Z,99915.26
2017-11-26T14:24:58.651Z,99915.55
2017-11-26T14:27:26.334Z,99907.25
2017-11-26T14:29:53.960Z,99909.87
2017-11-26T14:32:21.600Z,99909.16
2017-11-26T14:34:49.328Z,99910.94
2017-11-26T14:37:17.057Z,99908.48
2017-11-26T14:39:44.839Z,99914.67
2017-11-26T14:42:12.713Z,99912.94
2017-11-26T14:44:40.355Z,99908.83
2017-11-26T14:47:08.004Z,99910.85
2017-11-26T14:49:35.692Z,99911.20
2017-11-26T14:52:03.320Z,99906.12
2017-11-26T14:54:30.938Z,99901.27
2017-11-26T14:56:58.647Z,99899.98
2017-11-26T14:59:26.340Z,99898.64
2017-11-26T15:01:54.106Z,99895.88
2017-11-26T15:04:21.791Z,99894.88
2017-11-26T15:06:49.485Z,99886.55
2017-11-26T15:09:17.185Z,99893.58
2017-11-26T15:11:44.949Z,99898.77
2017-11-26T15:14:12.659Z,99896.59
2017-11-26T15:16:40.387Z,99892.95
2017-11-26T15:19:08.143Z,99899.27
2017-11-26T15:21:35.853Z,99905.38
2017-11-26T15:24:03.520Z,99897.31
2017-11-26T15:26:31.258Z,99891.80
2017-11-26T15:28:58.893Z,99893.91
2017-11-26T15:31:26.556Z,99894.83
2017-11-26T15:33:54.316Z,99891.52
2017-11-26T15:36:22.064Z,99885.98
2017-11-26T15:38:49.808Z,99885.12
2017-11-26T15:41:17.684Z,99881.90
2017-11-26T15:43:45.360Z,99876.91
2017-11-26T15:46:13.024Z,99876.48
2017-11-26T15:48:40.745Z,99879.73
2017-11-26T15:51:08.425Z,99878.12
2017-11-26T15:53:36.056Z,99880.00
2017-11-26T15:56:03.734Z,99875.02
2017-11-26T15:58:31.447Z,99869.75
2017-11-26T16:00:59.084Z,99862.93
2017-11-26T16:03:26.828Z,99866.38
2017-11-26T16:05:54.463Z,99863.77
2017-11-26T16:08:22.091Z,99859.28
2017-11-26T16:10:49.780Z,99863.41
2017-11-26T16:13:17.444Z,99858.69
2017-11-26T16:15:45.141Z,99854.91
2017-11-26T16:18:12.817Z,99861.64
2017-11-26T16:20:40.453Z,99856.11
2017-11-26T16:23:08.105Z,99857.66
2017-11-26T16:25:35.807Z,99854.89
2017-11-26T16:28:03.537Z,99851.30
2017-11-26T16:30:31.234Z,99848.16
2017-11-26T16:32:58.954Z,99854.47
2017-11-26T16:35:26.598Z,99850.88
2017-11-26T16:37:54.329Z,99845.14
2017-11-26T16:40:22.100Z,99843.03
2017-11-26T16:42:49.792Z,99837.74
2017-11-26T16:45:17.558Z,99836.62
2017-11-26T16:47:45.253Z,99834.92
2017-11-26T16:50:12.940Z,99836.90
2017-11-26T16:52:40.563Z,99836.31
2017-11-26T16:55:08.248Z,99834.98
2017-11-26T16:57:35.892Z,99829.01
2017-11-26T17:00:03.601Z,99823.75
2017-11-26T17:02:31.280Z,99829.52
2017-11-26T17:04:59.031Z,99836.78
2017-11-26T17:07:26.705Z,99831.63
2017-11-26T17:09:54.490Z,99830.02
2017-11-26T17:12:22.150Z,99817.67
2017-11-26T17:14:49.900Z,99825.69
2017-11-26T17:17:17.604Z,99821.81
2017-11-26T17:19:45.305Z,99818.08
2017-11-26T17:22:12.940Z,99816.39
2017-11-26T17:24:40.624Z,99805.59
2017-11-26T17:27:08.325Z,99806.56
2017-11-26T17:29:35.962Z,99805.73
2017-11-26T17:32:03.657Z,99803.27
2017-11-26T17:34:31.343Z,99806.49
2017-11-26T17:36:59.033Z,99802.77
2017-11-26T17:39:26.729Z,99805.28
2017-11-26T17:41:54.382Z,99807.54
2017-11-26T17:44:22.048Z,99811.84
2017-11-26T17:46:49.725Z,99809.81
2017-11-26T17:49:17.369Z,99809.86
2017-11-26T17:51:45.077Z,99807.70
2017-11-26T17:54:12.783Z,99803.19
2017-11-26T17:56:40.467Z,99803.41
2017-11-26T17:59:08.096Z,99797.30
2017-11-26T18:01:35.813Z,99793.10
2017-11-26T18:04:03.429Z,99791.25
2017-11-26T18:06:31.064Z,99797.16
2017-11-26T18:08:58.814Z,99790.95
2017-11-26T18:11:26.527Z,99788.73
2017-11-26T18:13:54.151Z,99782.89
2017-11-26T18:16:21.856Z,99781.27
2017-11-26T18:18:49.537Z,99780.52
2017-11-26T18:21:17.161Z,99783.81
2017-11-26T18:23:44.884Z,99781.83
2017-11-26T18:26:12.529Z,99770.18
2017-11-26T18:28:40.209Z,99775.94
2017-11-26T18:31:07.907Z,99772.36
2017-11-26T18:33:35.552Z,99770.25
2017-11-26T18:36:03.230Z,99769.18
2017-11-26T18:38:30.901Z,99767.08
2017-11-26T18:40:58.576Z,99767.76
2017-11-26T18:43:26.890Z,99772.67
2017-11-26T18:45:54.559Z,99767.42
2017-11-26T18:48:22.178Z,99770.94
2017-11-26T18:50:49.813Z,99772.89
2017-11-26T18:53:17.537Z,99772.91
2017-11-26T18:55:45.147Z,99775.83
2017-11-26T18:58:12.768Z,99772.81
2017-11-26T19:00:40.493Z,99773.80
2017-11-26T19:03:08.115Z,99775.40
2017-11-26T19:05:35.731Z,99775.69
2017-11-26T19:08:03.470Z,99774.87
2017-11-26T19:10:31.141Z,99773.45
2017-11-26T19:12:58.757Z,99767.48
2017-11-26T19:15:26.481Z,99765.51
2017-11-26T19:17:54.164Z,99767.83
2017-11-26T19:20:21.873Z,99770.43
2017-11-26T19:22:49.537Z,99765.08
2017-11-26T19:25:17.160Z,99760.73
2017-11-26T19:27:44.852Z,99762.88
2017-11-26T19:30:12.593Z,99755.14
2017-11-26T19:32:40.209Z,99758.73
2017-11-26T19:35:07.838Z,99757.00
2017-11-26T19:37:35.508Z,99764.16
2017-11-26T19:40:03.120Z,99755.45
2017-11-26T19:42:30.748Z,99753.84
2017-11-26T19:44:58.482Z,99761.14
2017-11-26T19:47:26.156Z,99762.02
2017-11-26T19:49:53.812Z,99766.84
2017-11-26T19:52:21.488Z,99760.80
2017-11-26T19:54:49.104Z,99758.63
2017-11-26T19:57:16.776Z,99753.98
2017-11-26T19:59:44.496Z,99754.96
2017-11-26T20:02:12.159Z,99750.41
2017-11-26T20:04:39.841Z,99751.81
2017-11-26T20:07:07.557Z,99749.65
2017-11-26T20:09:35.289Z,99746.26
2017-11-26T20:12:03.034Z,99750.91
2017-11-26T20:14:30.733Z,99757.86
2017-11-26T20:16:58.388Z,99755.80
2017-11-26T20:19:26.031Z,99762.77
2017-11-26T20:21:53.789Z,99759.59
2017-11-26T20:24:21.481Z,99756.36
2017-11-26T20:26:49.104Z,99756.85
2017-11-26T20:29:16.829Z,99755.73
2017-11-26T20:31:44.500Z,99741.11
2017-11-26T20:34:12.176Z,99740.50
2017-11-26T20:36:39.833Z,99732.58
2017-11-26T20:39:07.509Z,99738.08
2017-11-26T20:41:35.193Z,99740.60
2017-11-26T20:44:02.857Z,99741.87
2017-11-26T20:46:30.539Z,99737.38
2017-11-26T20:48:58.161Z,99731.12
2017-11-26T20:51:25.913Z,99732.31
2017-11-26T20:53:53.594Z,99725.00
2017-11-26T20:56:21.268Z,99725.54
2017-11-26T20:58:48.946Z,99729.48
2017-11-26T21:01:16.566Z,99731.21
2017-11-26T21:03:44.177Z,99734.80
2017-11-26T21:06:11.836Z,99738.20
2017-11-26T21:08:39.520Z,99735.23
2017-11-26T21:11:07.196Z,99728.51
2017-11-26T21:13:34.935Z,99725.82
2017-11-26T21:16:02.628Z,99725.50
2017-11-26T21:18:30.247Z,99729.09
2017-11-26T21:20:57.949Z,99731.02
2017-11-26T21:23:25.585Z,99725.36
2017-11-26T21:25:53.315Z,99729.66
2017-11-26T21:28:20.981Z,99736.49
2017-11-26T21:30:48.607Z,99743.45
2017-11-26T21:33:16.284Z,99743.31
2017-11-26T21:35:43.945Z,99738.73
2017-11-26T21:38:11.624Z,99747.15
2017-11-26T21:40:39.240Z,99747.34
2017-11-26T21:43:06.937Z,99750.15
2017-11-26T21:45:34.616Z,99754.45
2017-11-26T21:48:02.243Z,99763.30
2017-11-26T21:50:29.908Z,99760.77
2017-11-26T21:52:57.642Z,99755.44
2017-11-26T21:55:25.260Z,99754.65
2017-11-26T21:57:52.996Z,99757.48
2017-11-26T22:00:20.624Z,99757.13
2017-11-26T22:02:48.304Z,99753.31
2017-11-26T22:05:16.035Z,99754.31
2017-11-26T22:07:43.666Z,99759.58
2017-11-26T22:10:11.355Z,99752.53
2017-11-26T22:12:39.024Z,99754.66
2017-11-26T22:15:06.700Z,99756.81
2017-11-26T22:17:34.371Z,99757.06
2017-11-26T22:20:02.037Z,99757.55
2017-11-26T22:22:29.668Z,99758.39
2017-11-26T22:24:57.307Z,99750.88
2017-11-26T22:27:24.968Z,99760.41
2017-11-26T22:29:52.595Z,99757.88
2017-11-26T22:32:20.211Z,99770.59
2017-11-26T22:34:47.888Z,99768.08
2017-11-26T22:37:15.569Z,99765.14
2017-11-26T22:39:43.190Z,99765.14
2017-11-26T22:42:10.916Z,99767.15
2017-11-26T22:44:38.592Z,99773.70
2017-11-26T22:47:06.213Z,99772.44
2017-11-26T22:49:33.889Z,99778.74
2017-11-26T22:52:01.576Z,99782.84
2017-11-26T22:54:29.213Z,99795.81
2017-11-26T22:56:56.938Z,99793.79
2017-11-26T22:59:24.552Z,99792.16
2017-11-26T23:01:52.172Z,99794.14
2017-11-26T23:04:19.820Z,99794.70
2017-11-26T23:06:47.430Z,99795.77
2017-11-26T23:09:15.034Z,99794.56
2017-11-26T23:11:42.702Z,99799.45
2017-11-26T23:14:10.308Z,99800.52
2017-11-26T23:16:37.917Z,99802.78
2017-11-26T23:19:05.632Z,99799.55
2017-11-26T23:21:33.257Z,99805.44
2017-11-26T23:24:00.873Z,99811.27
2017-11-26T23:26:28.532Z,99813.09
2017-11-26T23:28:56.136Z,99815.61
2017-11-26T23:31:23.756Z,99820.68
2017-11-26T23:33:51.513Z,99828.05
2017-11-26T23:36:19.244Z,99826.38
2017-11-26T23:38:46.860Z,99829.06
2017-11-26T23:41:14.590Z,99832.77
2017-11-26T23:43:42.212Z,99842.11
2017-11-26T23:46:09.893Z,99836.49
2017-11-26T23:48:37.621Z,99834.30
2017-11-26T23:51:05.235Z,99843.42
2017-11-26T23:53:32.897Z,99850.23
2017-11-26T23:56:00.619Z,99857.19
2017-11-26T23:58:28.290Z,99853.52
